sensor_id;sensor_type;location;lat;lon;timestamp;P1;durP1;ratioP1;P2;durP2;ratioP2
18100;SDS011;9177;49.156;8.142;2023-05-31T00:00:03;2.45;;;1.50;;
18100;SDS011;9177;49.156;8.142;2023-05-31T00:02:31;3.10;;;1.80;;
18100;SDS011;9177;49.156;8.142;2023-05-31T00:04:57;2.75;;;1.65;;
18100;SDS011;9177;49.156;8.142;2023-05-31T00:07:24;3.47;;;1.70;;
18100;SDS011;9177;49.156;8.142;2023-05-31T00:09:53;2.67;;;1.80;;
18100;SDS011;9177;49.156;8.142;2023-05-31T00:12:19;2.33;;;1.52;;
18100;SDS011;9177;49.156;8.142;2023-05-31T00:14:46;2.45;;;1.80;;
18100;SDS011;9177;49.156;8.142;2023-05-31T00:17:13;2.58;;;1.60;;
18100;SDS011;9177;49.156;8.142;2023-05-31T00:19:40;2.40;;;1.35;;
18100;SDS011;9177;49.156;8.142;2023-05-31T00:22:07;2.58;;;1.67;;
18100;SDS011;9177;49.156;8.142;2023-05-31T00:24:35;2.33;;;1.30;;
18100;SDS011;9177;49.156;8.142;2023-05-31T00:27:03;2.05;;;1.70;;
18100;SDS011;9177;49.156;8.142;2023-05-31T00:29:31;3.30;;;1.70;;
18100;SDS011;9177;49.156;8.142;2023-05-31T00:31:58;3.38;;;1.33;;
18100;SDS011;9177;49.156;8.142;2023-05-31T00:34:25;1.30;;;1.20;;
18100;SDS011;9177;49.156;8.142;2023-05-31T00:36:52;1.98;;;1.40;;
18100;SDS011;9177;49.156;8.142;2023-05-31T00:39:21;2.42;;;1.58;;
18100;SDS011;9177;49.156;8.142;2023-05-31T00:41:48;2.05;;;1.38;;
18100;SDS011;9177;49.156;8.142;2023-05-31T00:47:12;1.63;;;1.40;;
18100;SDS011;9177;49.156;8.142;2023-05-31T00:49:40;1.90;;;1.40;;
18100;SDS011;9177;49.156;8.142;2023-05-31T00:52:07;2.30;;;1.55;;
18100;SDS011;9177;49.156;8.142;2023-05-31T00:54:35;2.03;;;1.30;;
18100;SDS011;9177;49.156;8.142;2023-05-31T00:57:03;1.70;;;1.38;;
18100;SDS011;9177;49.156;8.142;2023-05-31T00:59:31;1.73;;;1.20;;
18100;SDS011;9177;49.156;8.142;2023-05-31T01:02:00;2.88;;;1.50;;
18100;SDS011;9177;49.156;8.142;2023-05-31T01:04:30;1.70;;;1.45;;
18100;SDS011;9177;49.156;8.142;2023-05-31T01:06:58;2.20;;;1.33;;
18100;SDS011;9177;49.156;8.142;2023-05-31T01:09:26;1.67;;;1.30;;
18100;SDS011;9177;49.156;8.142;2023-05-31T01:12:01;1.92;;;1.17;;
18100;SDS011;9177;49.156;8.142;2023-05-31T01:14:45;1.85;;;1.45;;
18100;SDS011;9177;49.156;8.142;2023-05-31T01:17:23;2.35;;;1.48;;
18100;SDS011;9177;49.156;8.142;2023-05-31T01:19:56;1.95;;;1.13;;
18100;SDS011;9177;49.156;8.142;2023-05-31T01:22:31;1.85;;;1.40;;
18100;SDS011;9177;49.156;8.142;2023-05-31T01:28:04;2.72;;;1.73;;
18100;SDS011;9177;49.156;8.142;2023-05-31T01:30:33;1.85;;;1.42;;
18100;SDS011;9177;49.156;8.142;2023-05-31T01:33:03;1.73;;;1.38;;
18100;SDS011;9177;49.156;8.142;2023-05-31T01:35:34;1.42;;;1.33;;
18100;SDS011;9177;49.156;8.142;2023-05-31T01:38:01;1.42;;;1.10;;
18100;SDS011;9177;49.156;8.142;2023-05-31T01:40:28;2.30;;;1.40;;
18100;SDS011;9177;49.156;8.142;2023-05-31T01:42:56;2.55;;;1.38;;
18100;SDS011;9177;49.156;8.142;2023-05-31T01:45:26;2.08;;;1.38;;
18100;SDS011;9177;49.156;8.142;2023-05-31T01:47:55;2.90;;;1.42;;
18100;SDS011;9177;49.156;8.142;2023-05-31T01:50:26;2.50;;;1.60;;
18100;SDS011;9177;49.156;8.142;2023-05-31T01:52:54;1.98;;;1.33;;
18100;SDS011;9177;49.156;8.142;2023-05-31T01:55:21;1.40;;;1.15;;
18100;SDS011;9177;49.156;8.142;2023-05-31T01:57:48;2.80;;;1.67;;
18100;SDS011;9177;49.156;8.142;2023-05-31T02:00:17;2.92;;;1.40;;
18100;SDS011;9177;49.156;8.142;2023-05-31T02:02:46;1.85;;;1.20;;
18100;SDS011;9177;49.156;8.142;2023-05-31T02:05:14;1.75;;;1.38;;
18100;SDS011;9177;49.156;8.142;2023-05-31T02:07:42;2.42;;;1.40;;
18100;SDS011;9177;49.156;8.142;2023-05-31T02:10:11;1.50;;;1.30;;
18100;SDS011;9177;49.156;8.142;2023-05-31T02:12:38;1.98;;;1.55;;
18100;SDS011;9177;49.156;8.142;2023-05-31T02:15:06;2.05;;;1.42;;
18100;SDS011;9177;49.156;8.142;2023-05-31T02:17:36;1.25;;;1.02;;
18100;SDS011;9177;49.156;8.142;2023-05-31T02:20:08;2.03;;;1.40;;
18100;SDS011;9177;49.156;8.142;2023-05-31T02:22:37;2.58;;;1.40;;
18100;SDS011;9177;49.156;8.142;2023-05-31T02:25:05;2.38;;;1.35;;
18100;SDS011;9177;49.156;8.142;2023-05-31T02:27:33;2.47;;;1.70;;
18100;SDS011;9177;49.156;8.142;2023-05-31T02:30:00;2.47;;;1.65;;
18100;SDS011;9177;49.156;8.142;2023-05-31T02:32:28;2.15;;;1.58;;
18100;SDS011;9177;49.156;8.142;2023-05-31T02:34:56;1.98;;;1.58;;
18100;SDS011;9177;49.156;8.142;2023-05-31T02:37:25;1.63;;;1.45;;
18100;SDS011;9177;49.156;8.142;2023-05-31T02:39:54;1.98;;;1.40;;
18100;SDS011;9177;49.156;8.142;2023-05-31T02:42:21;2.63;;;1.42;;
18100;SDS011;9177;49.156;8.142;2023-05-31T02:44:48;1.38;;;1.27;;
18100;SDS011;9177;49.156;8.142;2023-05-31T02:47:15;1.67;;;1.15;;
18100;SDS011;9177;49.156;8.142;2023-05-31T02:49:43;2.10;;;1.48;;
18100;SDS011;9177;49.156;8.142;2023-05-31T02:52:10;1.48;;;1.27;;
18100;SDS011;9177;49.156;8.142;2023-05-31T02:54:39;1.63;;;1.20;;
18100;SDS011;9177;49.156;8.142;2023-05-31T02:57:06;1.83;;;1.40;;
18100;SDS011;9177;49.156;8.142;2023-05-31T02:59:33;1.80;;;1.48;;
18100;SDS011;9177;49.156;8.142;2023-05-31T03:02:00;2.35;;;1.60;;
18100;SDS011;9177;49.156;8.142;2023-05-31T03:04:28;1.90;;;1.45;;
18100;SDS011;9177;49.156;8.142;2023-05-31T03:06:58;1.63;;;1.30;;
18100;SDS011;9177;49.156;8.142;2023-05-31T03:09:28;1.27;;;1.00;;
18100;SDS011;9177;49.156;8.142;2023-05-31T03:11:57;2.50;;;1.52;;
18100;SDS011;9177;49.156;8.142;2023-05-31T03:14:24;1.52;;;1.20;;
18100;SDS011;9177;49.156;8.142;2023-05-31T03:16:51;1.42;;;1.23;;
18100;SDS011;9177;49.156;8.142;2023-05-31T03:19:19;1.77;;;1.40;;
18100;SDS011;9177;49.156;8.142;2023-05-31T03:21:46;1.40;;;1.20;;
18100;SDS011;9177;49.156;8.142;2023-05-31T03:24:13;1.75;;;1.40;;
18100;SDS011;9177;49.156;8.142;2023-05-31T03:26:40;2.13;;;1.40;;
18100;SDS011;9177;49.156;8.142;2023-05-31T03:29:09;1.20;;;1.10;;
18100;SDS011;9177;49.156;8.142;2023-05-31T03:31:36;1.73;;;1.40;;
18100;SDS011;9177;49.156;8.142;2023-05-31T03:34:03;1.30;;;1.20;;
18100;SDS011;9177;49.156;8.142;2023-05-31T03:36:31;1.77;;;1.27;;
18100;SDS011;9177;49.156;8.142;2023-05-31T03:38:58;2.13;;;1.40;;
18100;SDS011;9177;49.156;8.142;2023-05-31T03:41:29;2.65;;;1.60;;
18100;SDS011;9177;49.156;8.142;2023-05-31T03:43:57;1.75;;;1.38;;
18100;SDS011;9177;49.156;8.142;2023-05-31T03:46:26;1.30;;;1.20;;
18100;SDS011;9177;49.156;8.142;2023-05-31T03:48:53;1.65;;;1.27;;
18100;SDS011;9177;49.156;8.142;2023-05-31T03:51:21;1.17;;;1.05;;
18100;SDS011;9177;49.156;8.142;2023-05-31T03:53:48;1.88;;;1.50;;
18100;SDS011;9177;49.156;8.142;2023-05-31T03:56:16;2.00;;;1.40;;
18100;SDS011;9177;49.156;8.142;2023-05-31T03:58:43;1.20;;;1.10;;
18100;SDS011;9177;49.156;8.142;2023-05-31T04:01:11;1.55;;;1.40;;
18100;SDS011;9177;49.156;8.142;2023-05-31T04:03:40;1.80;;;1.30;;
18100;SDS011;9177;49.156;8.142;2023-05-31T04:06:08;1.80;;;1.35;;
18100;SDS011;9177;49.156;8.142;2023-05-31T04:08:35;2.20;;;1.50;;
18100;SDS011;9177;49.156;8.142;2023-05-31T04:11:03;1.48;;;1.38;;
18100;SDS011;9177;49.156;8.142;2023-05-31T04:13:30;1.35;;;1.20;;
18100;SDS011;9177;49.156;8.142;2023-05-31T04:15:58;1.35;;;1.25;;
18100;SDS011;9177;49.156;8.142;2023-05-31T04:18:25;1.35;;;1.25;;
18100;SDS011;9177;49.156;8.142;2023-05-31T04:20:54;1.40;;;1.20;;
18100;SDS011;9177;49.156;8.142;2023-05-31T04:23:22;1.30;;;1.13;;
18100;SDS011;9177;49.156;8.142;2023-05-31T04:25:49;1.83;;;1.40;;
18100;SDS011;9177;49.156;8.142;2023-05-31T04:28:15;2.03;;;1.40;;
18100;SDS011;9177;49.156;8.142;2023-05-31T04:30:45;2.15;;;1.20;;
18100;SDS011;9177;49.156;8.142;2023-05-31T04:33:13;1.50;;;1.30;;
18100;SDS011;9177;49.156;8.142;2023-05-31T04:35:45;1.77;;;1.15;;
18100;SDS011;9177;49.156;8.142;2023-05-31T04:38:15;1.40;;;1.30;;
18100;SDS011;9177;49.156;8.142;2023-05-31T04:40:43;2.17;;;1.50;;
18100;SDS011;9177;49.156;8.142;2023-05-31T04:43:14;1.40;;;1.30;;
18100;SDS011;9177;49.156;8.142;2023-05-31T04:45:55;1.50;;;1.30;;
18100;SDS011;9177;49.156;8.142;2023-05-31T04:48:23;2.38;;;1.30;;
18100;SDS011;9177;49.156;8.142;2023-05-31T04:50:51;1.33;;;1.23;;
18100;SDS011;9177;49.156;8.142;2023-05-31T04:53:21;1.70;;;1.35;;
18100;SDS011;9177;49.156;8.142;2023-05-31T04:55:49;1.50;;;1.25;;
18100;SDS011;9177;49.156;8.142;2023-05-31T04:58:17;1.65;;;1.27;;
18100;SDS011;9177;49.156;8.142;2023-05-31T05:00:45;1.73;;;1.40;;
18100;SDS011;9177;49.156;8.142;2023-05-31T05:03:12;1.40;;;1.30;;
18100;SDS011;9177;49.156;8.142;2023-05-31T05:05:40;1.83;;;1.25;;
18100;SDS011;9177;49.156;8.142;2023-05-31T05:08:07;1.70;;;1.50;;
18100;SDS011;9177;49.156;8.142;2023-05-31T05:10:36;1.65;;;1.15;;
18100;SDS011;9177;49.156;8.142;2023-05-31T05:13:02;1.83;;;1.27;;
18100;SDS011;9177;49.156;8.142;2023-05-31T05:15:29;1.50;;;1.20;;
18100;SDS011;9177;49.156;8.142;2023-05-31T05:17:56;1.35;;;1.15;;
18100;SDS011;9177;49.156;8.142;2023-05-31T05:20:24;2.17;;;1.48;;
18100;SDS011;9177;49.156;8.142;2023-05-31T05:22:51;1.52;;;1.23;;
18100;SDS011;9177;49.156;8.142;2023-05-31T05:25:18;1.58;;;1.20;;
18100;SDS011;9177;49.156;8.142;2023-05-31T05:27:49;2.22;;;1.40;;
18100;SDS011;9177;49.156;8.142;2023-05-31T05:30:16;1.13;;;1.02;;
18100;SDS011;9177;49.156;8.142;2023-05-31T05:32:44;1.88;;;1.58;;
18100;SDS011;9177;49.156;8.142;2023-05-31T05:35:11;2.25;;;1.50;;
18100;SDS011;9177;49.156;8.142;2023-05-31T05:37:37;1.33;;;1.20;;
18100;SDS011;9177;49.156;8.142;2023-05-31T05:40:05;1.77;;;1.30;;
18100;SDS011;9177;49.156;8.142;2023-05-31T05:42:32;1.63;;;1.30;;
18100;SDS011;9177;49.156;8.142;2023-05-31T05:45:04;2.13;;;1.33;;
18100;SDS011;9177;49.156;8.142;2023-05-31T05:47:32;1.95;;;1.40;;
18100;SDS011;9177;49.156;8.142;2023-05-31T05:50:00;1.63;;;1.30;;
18100;SDS011;9177;49.156;8.142;2023-05-31T05:52:27;1.30;;;1.20;;
18100;SDS011;9177;49.156;8.142;2023-05-31T05:54:54;2.03;;;1.42;;
18100;SDS011;9177;49.156;8.142;2023-05-31T05:57:21;1.50;;;1.40;;
18100;SDS011;9177;49.156;8.142;2023-05-31T05:59:50;1.80;;;1.48;;
18100;SDS011;9177;49.156;8.142;2023-05-31T06:02:18;1.83;;;1.40;;
18100;SDS011;9177;49.156;8.142;2023-05-31T06:04:45;1.85;;;1.50;;
18100;SDS011;9177;49.156;8.142;2023-05-31T06:07:12;1.60;;;1.33;;
18100;SDS011;9177;49.156;8.142;2023-05-31T06:09:39;1.98;;;1.45;;
18100;SDS011;9177;49.156;8.142;2023-05-31T06:12:06;1.77;;;1.20;;
18100;SDS011;9177;49.156;8.142;2023-05-31T06:14:34;1.50;;;1.38;;
18100;SDS011;9177;49.156;8.142;2023-05-31T06:17:02;1.73;;;1.52;;
18100;SDS011;9177;49.156;8.142;2023-05-31T06:19:35;1.58;;;1.48;;
18100;SDS011;9177;49.156;8.142;2023-05-31T06:22:03;1.95;;;1.75;;
18100;SDS011;9177;49.156;8.142;2023-05-31T06:24:30;2.03;;;1.38;;
18100;SDS011;9177;49.156;8.142;2023-05-31T06:26:58;2.67;;;1.52;;
18100;SDS011;9177;49.156;8.142;2023-05-31T06:29:27;1.40;;;1.30;;
18100;SDS011;9177;49.156;8.142;2023-05-31T06:31:54;1.67;;;1.40;;
18100;SDS011;9177;49.156;8.142;2023-05-31T06:34:22;1.67;;;1.40;;
18100;SDS011;9177;49.156;8.142;2023-05-31T06:36:50;1.80;;;1.60;;
18100;SDS011;9177;49.156;8.142;2023-05-31T06:39:17;1.63;;;1.50;;
18100;SDS011;9177;49.156;8.142;2023-05-31T06:41:44;2.10;;;1.63;;
18100;SDS011;9177;49.156;8.142;2023-05-31T06:44:25;1.85;;;1.30;;
18100;SDS011;9177;49.156;8.142;2023-05-31T06:46:59;1.50;;;1.40;;
18100;SDS011;9177;49.156;8.142;2023-05-31T06:49:26;2.58;;;1.75;;
18100;SDS011;9177;49.156;8.142;2023-05-31T06:51:54;1.63;;;1.40;;
18100;SDS011;9177;49.156;8.142;2023-05-31T06:54:22;2.38;;;1.40;;
18100;SDS011;9177;49.156;8.142;2023-05-31T06:56:49;1.70;;;1.55;;
18100;SDS011;9177;49.156;8.142;2023-05-31T06:59:16;3.05;;;1.70;;
18100;SDS011;9177;49.156;8.142;2023-05-31T07:01:43;2.38;;;1.70;;
18100;SDS011;9177;49.156;8.142;2023-05-31T07:04:10;2.10;;;1.40;;
18100;SDS011;9177;49.156;8.142;2023-05-31T07:06:37;1.40;;;1.30;;
18100;SDS011;9177;49.156;8.142;2023-05-31T07:09:05;1.33;;;1.20;;
18100;SDS011;9177;49.156;8.142;2023-05-31T07:11:32;2.03;;;1.42;;
18100;SDS011;9177;49.156;8.142;2023-05-31T07:13:59;3.70;;;1.50;;
18100;SDS011;9177;49.156;8.142;2023-05-31T07:16:27;1.70;;;1.33;;
18100;SDS011;9177;49.156;8.142;2023-05-31T07:19:03;3.53;;;1.70;;
18100;SDS011;9177;49.156;8.142;2023-05-31T07:21:30;2.33;;;1.60;;
18100;SDS011;9177;49.156;8.142;2023-05-31T07:23:57;3.15;;;1.77;;
18100;SDS011;9177;49.156;8.142;2023-05-31T07:26:26;2.92;;;1.80;;
18100;SDS011;9177;49.156;8.142;2023-05-31T07:28:55;2.85;;;1.80;;
18100;SDS011;9177;49.156;8.142;2023-05-31T07:31:22;4.60;;;1.77;;
18100;SDS011;9177;49.156;8.142;2023-05-31T07:33:49;3.22;;;1.90;;
18100;SDS011;9177;49.156;8.142;2023-05-31T07:36:16;2.60;;;1.65;;
18100;SDS011;9177;49.156;8.142;2023-05-31T07:38:52;2.35;;;1.88;;
18100;SDS011;9177;49.156;8.142;2023-05-31T07:41:19;1.85;;;1.50;;
18100;SDS011;9177;49.156;8.142;2023-05-31T07:43:47;2.13;;;1.60;;
18100;SDS011;9177;49.156;8.142;2023-05-31T07:46:15;5.10;;;1.73;;
18100;SDS011;9177;49.156;8.142;2023-05-31T07:48:42;1.83;;;1.65;;
18100;SDS011;9177;49.156;8.142;2023-05-31T07:51:09;3.28;;;1.90;;
18100;SDS011;9177;49.156;8.142;2023-05-31T07:53:36;2.22;;;1.77;;
18100;SDS011;9177;49.156;8.142;2023-05-31T07:56:05;4.20;;;1.65;;
18100;SDS011;9177;49.156;8.142;2023-05-31T07:58:33;3.13;;;1.60;;
18100;SDS011;9177;49.156;8.142;2023-05-31T08:01:20;2.95;;;1.80;;
18100;SDS011;9177;49.156;8.142;2023-05-31T08:03:47;2.92;;;1.73;;
18100;SDS011;9177;49.156;8.142;2023-05-31T08:06:16;3.63;;;1.67;;
18100;SDS011;9177;49.156;8.142;2023-05-31T08:08:43;2.85;;;2.08;;
18100;SDS011;9177;49.156;8.142;2023-05-31T08:11:11;1.90;;;1.70;;
18100;SDS011;9177;49.156;8.142;2023-05-31T08:13:38;2.83;;;1.70;;
18100;SDS011;9177;49.156;8.142;2023-05-31T08:16:05;3.83;;;1.52;;
18100;SDS011;9177;49.156;8.142;2023-05-31T08:18:34;2.15;;;1.50;;
18100;SDS011;9177;49.156;8.142;2023-05-31T08:21:00;3.90;;;1.95;;
18100;SDS011;9177;49.156;8.142;2023-05-31T08:23:28;1.65;;;1.38;;
18100;SDS011;9177;49.156;8.142;2023-05-31T08:25:55;3.45;;;2.03;;
18100;SDS011;9177;49.156;8.142;2023-05-31T08:28:22;3.40;;;1.80;;
18100;SDS011;9177;49.156;8.142;2023-05-31T08:30:48;3.78;;;1.95;;
18100;SDS011;9177;49.156;8.142;2023-05-31T08:33:15;5.43;;;2.00;;
18100;SDS011;9177;49.156;8.142;2023-05-31T08:35:44;5.55;;;2.25;;
18100;SDS011;9177;49.156;8.142;2023-05-31T08:38:11;4.60;;;1.88;;
18100;SDS011;9177;49.156;8.142;2023-05-31T08:40:38;4.13;;;2.33;;
18100;SDS011;9177;49.156;8.142;2023-05-31T08:43:05;2.85;;;2.25;;
18100;SDS011;9177;49.156;8.142;2023-05-31T08:45:40;6.03;;;3.70;;
18100;SDS011;9177;49.156;8.142;2023-05-31T08:48:09;5.00;;;3.70;;
18100;SDS011;9177;49.156;8.142;2023-05-31T08:50:40;4.95;;;3.70;;
18100;SDS011;9177;49.156;8.142;2023-05-31T08:53:10;4.05;;;3.47;;
18100;SDS011;9177;49.156;8.142;2023-05-31T08:55:37;5.65;;;3.03;;
18100;SDS011;9177;49.156;8.142;2023-05-31T08:58:05;4.43;;;3.08;;
18100;SDS011;9177;49.156;8.142;2023-05-31T09:00:35;3.72;;;3.15;;
18100;SDS011;9177;49.156;8.142;2023-05-31T09:03:03;4.20;;;3.13;;
18100;SDS011;9177;49.156;8.142;2023-05-31T09:05:31;4.22;;;3.05;;
18100;SDS011;9177;49.156;8.142;2023-05-31T09:07:59;4.13;;;2.92;;
18100;SDS011;9177;49.156;8.142;2023-05-31T09:10:28;3.80;;;2.83;;
18100;SDS011;9177;49.156;8.142;2023-05-31T09:12:54;5.07;;;3.30;;
18100;SDS011;9177;49.156;8.142;2023-05-31T09:15:22;5.63;;;3.25;;
18100;SDS011;9177;49.156;8.142;2023-05-31T09:17:50;6.45;;;3.35;;
18100;SDS011;9177;49.156;8.142;2023-05-31T09:20:18;8.77;;;3.45;;
18100;SDS011;9177;49.156;8.142;2023-05-31T09:22:46;6.15;;;3.05;;
18100;SDS011;9177;49.156;8.142;2023-05-31T09:25:14;7.53;;;3.28;;
18100;SDS011;9177;49.156;8.142;2023-05-31T09:27:42;4.95;;;2.88;;
18100;SDS011;9177;49.156;8.142;2023-05-31T09:30:09;6.80;;;3.45;;
18100;SDS011;9177;49.156;8.142;2023-05-31T09:32:39;7.32;;;3.00;;
18100;SDS011;9177;49.156;8.142;2023-05-31T09:35:10;6.03;;;2.67;;
18100;SDS011;9177;49.156;8.142;2023-05-31T09:37:41;5.05;;;3.20;;
18100;SDS011;9177;49.156;8.142;2023-05-31T09:40:09;4.07;;;3.05;;
18100;SDS011;9177;49.156;8.142;2023-05-31T09:42:47;4.32;;;2.72;;
18100;SDS011;9177;49.156;8.142;2023-05-31T09:45:14;4.40;;;2.70;;
18100;SDS011;9177;49.156;8.142;2023-05-31T09:47:41;4.47;;;2.60;;
18100;SDS011;9177;49.156;8.142;2023-05-31T09:50:08;4.22;;;2.40;;
18100;SDS011;9177;49.156;8.142;2023-05-31T09:52:35;3.65;;;2.20;;
18100;SDS011;9177;49.156;8.142;2023-05-31T09:55:06;6.63;;;2.67;;
18100;SDS011;9177;49.156;8.142;2023-05-31T09:57:34;3.70;;;2.60;;
18100;SDS011;9177;49.156;8.142;2023-05-31T10:00:08;7.20;;;3.03;;
18100;SDS011;9177;49.156;8.142;2023-05-31T10:02:41;3.58;;;2.30;;
18100;SDS011;9177;49.156;8.142;2023-05-31T10:05:09;4.63;;;2.70;;
18100;SDS011;9177;49.156;8.142;2023-05-31T10:07:38;5.70;;;3.00;;
18100;SDS011;9177;49.156;8.142;2023-05-31T10:10:06;5.65;;;2.50;;
18100;SDS011;9177;49.156;8.142;2023-05-31T10:12:34;4.95;;;2.67;;
18100;SDS011;9177;49.156;8.142;2023-05-31T10:15:21;3.67;;;2.75;;
18100;SDS011;9177;49.156;8.142;2023-05-31T10:17:50;4.55;;;2.67;;
18100;SDS011;9177;49.156;8.142;2023-05-31T10:20:24;4.40;;;2.65;;
18100;SDS011;9177;49.156;8.142;2023-05-31T10:22:56;4.15;;;2.60;;
18100;SDS011;9177;49.156;8.142;2023-05-31T10:25:28;4.22;;;2.38;;
18100;SDS011;9177;49.156;8.142;2023-05-31T10:28:00;2.90;;;2.20;;
18100;SDS011;9177;49.156;8.142;2023-05-31T10:30:35;3.03;;;2.47;;
18100;SDS011;9177;49.156;8.142;2023-05-31T10:33:06;3.42;;;2.70;;
18100;SDS011;9177;49.156;8.142;2023-05-31T10:35:35;5.43;;;2.20;;
18100;SDS011;9177;49.156;8.142;2023-05-31T10:38:02;5.22;;;2.45;;
18100;SDS011;9177;49.156;8.142;2023-05-31T10:40:31;4.00;;;2.50;;
18100;SDS011;9177;49.156;8.142;2023-05-31T10:43:09;3.80;;;2.50;;
18100;SDS011;9177;49.156;8.142;2023-05-31T10:45:45;2.28;;;2.08;;
18100;SDS011;9177;49.156;8.142;2023-05-31T10:48:19;2.53;;;2.10;;
18100;SDS011;9177;49.156;8.142;2023-05-31T10:50:53;6.05;;;2.30;;
18100;SDS011;9177;49.156;8.142;2023-05-31T10:53:21;2.53;;;2.00;;
18100;SDS011;9177;49.156;8.142;2023-05-31T10:55:49;3.78;;;2.28;;
18100;SDS011;9177;49.156;8.142;2023-05-31T10:58:26;6.88;;;2.22;;
18100;SDS011;9177;49.156;8.142;2023-05-31T11:00:55;2.03;;;1.70;;
18100;SDS011;9177;49.156;8.142;2023-05-31T11:03:25;3.60;;;2.60;;
18100;SDS011;9177;49.156;8.142;2023-05-31T11:05:55;3.67;;;2.50;;
18100;SDS011;9177;49.156;8.142;2023-05-31T11:08:24;3.17;;;2.20;;
18100;SDS011;9177;49.156;8.142;2023-05-31T11:10:52;3.10;;;2.10;;
18100;SDS011;9177;49.156;8.142;2023-05-31T11:13:18;2.63;;;1.98;;
18100;SDS011;9177;49.156;8.142;2023-05-31T11:16:07;6.78;;;2.50;;
18100;SDS011;9177;49.156;8.142;2023-05-31T11:18:40;2.65;;;2.35;;
18100;SDS011;9177;49.156;8.142;2023-05-31T11:21:07;3.25;;;2.25;;
18100;SDS011;9177;49.156;8.142;2023-05-31T11:23:57;3.80;;;2.50;;
18100;SDS011;9177;49.156;8.142;2023-05-31T11:26:24;3.55;;;2.60;;
18100;SDS011;9177;49.156;8.142;2023-05-31T11:28:54;4.70;;;2.00;;
18100;SDS011;9177;49.156;8.142;2023-05-31T11:34:24;3.75;;;2.35;;
18100;SDS011;9177;49.156;8.142;2023-05-31T11:36:52;3.95;;;2.53;;
18100;SDS011;9177;49.156;8.142;2023-05-31T11:39:19;2.80;;;2.30;;
18100;SDS011;9177;49.156;8.142;2023-05-31T11:41:47;4.65;;;2.63;;
18100;SDS011;9177;49.156;8.142;2023-05-31T11:44:14;2.95;;;2.40;;
18100;SDS011;9177;49.156;8.142;2023-05-31T11:46:59;4.05;;;2.80;;
18100;SDS011;9177;49.156;8.142;2023-05-31T11:49:29;4.07;;;2.50;;
18100;SDS011;9177;49.156;8.142;2023-05-31T11:51:58;4.75;;;2.70;;
18100;SDS011;9177;49.156;8.142;2023-05-31T11:54:26;3.38;;;2.47;;
18100;SDS011;9177;49.156;8.142;2023-05-31T11:56:56;4.00;;;2.75;;
18100;SDS011;9177;49.156;8.142;2023-05-31T11:59:25;3.45;;;2.15;;
18100;SDS011;9177;49.156;8.142;2023-05-31T12:02:07;2.90;;;2.20;;
18100;SDS011;9177;49.156;8.142;2023-05-31T12:04:36;4.63;;;2.90;;
18100;SDS011;9177;49.156;8.142;2023-05-31T12:07:04;4.28;;;2.78;;
18100;SDS011;9177;49.156;8.142;2023-05-31T12:09:33;4.10;;;2.55;;
18100;SDS011;9177;49.156;8.142;2023-05-31T12:12:00;3.42;;;2.45;;
18100;SDS011;9177;49.156;8.142;2023-05-31T12:14:28;3.63;;;2.85;;
18100;SDS011;9177;49.156;8.142;2023-05-31T12:16:55;4.00;;;3.08;;
18100;SDS011;9177;49.156;8.142;2023-05-31T12:19:23;3.20;;;2.53;;
18100;SDS011;9177;49.156;8.142;2023-05-31T12:21:51;3.70;;;2.60;;
18100;SDS011;9177;49.156;8.142;2023-05-31T12:24:19;3.75;;;2.65;;
18100;SDS011;9177;49.156;8.142;2023-05-31T12:26:46;4.28;;;2.47;;
18100;SDS011;9177;49.156;8.142;2023-05-31T12:29:14;3.78;;;2.53;;
18100;SDS011;9177;49.156;8.142;2023-05-31T12:31:42;7.13;;;3.00;;
18100;SDS011;9177;49.156;8.142;2023-05-31T12:34:10;6.05;;;2.80;;
18100;SDS011;9177;49.156;8.142;2023-05-31T12:36:40;9.82;;;2.83;;
18100;SDS011;9177;49.156;8.142;2023-05-31T12:39:08;3.33;;;2.50;;
18100;SDS011;9177;49.156;8.142;2023-05-31T12:41:36;5.18;;;2.63;;
18100;SDS011;9177;49.156;8.142;2023-05-31T12:44:05;6.10;;;2.85;;
18100;SDS011;9177;49.156;8.142;2023-05-31T12:46:36;5.68;;;2.75;;
18100;SDS011;9177;49.156;8.142;2023-05-31T12:49:13;3.65;;;2.45;;
18100;SDS011;9177;49.156;8.142;2023-05-31T12:51:45;3.08;;;2.60;;
18100;SDS011;9177;49.156;8.142;2023-05-31T12:54:12;4.45;;;2.70;;
18100;SDS011;9177;49.156;8.142;2023-05-31T12:56:41;5.97;;;2.63;;
18100;SDS011;9177;49.156;8.142;2023-05-31T12:59:09;5.60;;;2.92;;
18100;SDS011;9177;49.156;8.142;2023-05-31T13:01:36;4.53;;;2.55;;
18100;SDS011;9177;49.156;8.142;2023-05-31T13:04:05;7.05;;;3.08;;
18100;SDS011;9177;49.156;8.142;2023-05-31T13:06:35;3.42;;;2.78;;
18100;SDS011;9177;49.156;8.142;2023-05-31T13:09:03;4.35;;;2.60;;
18100;SDS011;9177;49.156;8.142;2023-05-31T13:11:32;4.68;;;2.25;;
18100;SDS011;9177;49.156;8.142;2023-05-31T13:14:00;9.27;;;2.80;;
18100;SDS011;9177;49.156;8.142;2023-05-31T13:16:28;6.40;;;2.38;;
18100;SDS011;9177;49.156;8.142;2023-05-31T13:18:55;6.70;;;2.83;;
18100;SDS011;9177;49.156;8.142;2023-05-31T13:21:22;5.82;;;2.78;;
18100;SDS011;9177;49.156;8.142;2023-05-31T13:23:49;4.85;;;2.42;;
18100;SDS011;9177;49.156;8.142;2023-05-31T13:26:18;6.78;;;2.85;;
18100;SDS011;9177;49.156;8.142;2023-05-31T13:28:45;6.05;;;2.30;;
18100;SDS011;9177;49.156;8.142;2023-05-31T13:31:12;5.30;;;2.70;;
18100;SDS011;9177;49.156;8.142;2023-05-31T13:33:39;6.97;;;2.72;;
18100;SDS011;9177;49.156;8.142;2023-05-31T13:36:06;6.28;;;2.55;;
18100;SDS011;9177;49.156;8.142;2023-05-31T13:38:33;5.15;;;2.85;;
18100;SDS011;9177;49.156;8.142;2023-05-31T13:40:59;3.92;;;2.35;;
18100;SDS011;9177;49.156;8.142;2023-05-31T13:43:28;7.03;;;2.67;;
18100;SDS011;9177;49.156;8.142;2023-05-31T13:45:54;5.78;;;2.17;;
18100;SDS011;9177;49.156;8.142;2023-05-31T13:48:21;3.75;;;2.30;;
18100;SDS011;9177;49.156;8.142;2023-05-31T13:50:48;3.92;;;2.00;;
18100;SDS011;9177;49.156;8.142;2023-05-31T13:53:16;4.63;;;2.58;;
18100;SDS011;9177;49.156;8.142;2023-05-31T13:55:42;3.40;;;2.22;;
18100;SDS011;9177;49.156;8.142;2023-05-31T13:58:11;8.93;;;2.63;;
18100;SDS011;9177;49.156;8.142;2023-05-31T14:00:39;7.05;;;2.40;;
18100;SDS011;9177;49.156;8.142;2023-05-31T14:03:06;3.20;;;2.03;;
18100;SDS011;9177;49.156;8.142;2023-05-31T14:05:33;5.13;;;2.33;;
18100;SDS011;9177;49.156;8.142;2023-05-31T14:08:01;4.57;;;2.40;;
18100;SDS011;9177;49.156;8.142;2023-05-31T14:10:29;4.07;;;2.25;;
18100;SDS011;9177;49.156;8.142;2023-05-31T14:12:56;2.80;;;2.25;;
18100;SDS011;9177;49.156;8.142;2023-05-31T14:15:23;4.60;;;2.13;;
18100;SDS011;9177;49.156;8.142;2023-05-31T14:17:51;5.75;;;2.42;;
18100;SDS011;9177;49.156;8.142;2023-05-31T14:20:18;5.97;;;2.38;;
18100;SDS011;9177;49.156;8.142;2023-05-31T14:22:45;3.97;;;2.15;;
18100;SDS011;9177;49.156;8.142;2023-05-31T14:25:12;4.55;;;2.00;;
18100;SDS011;9177;49.156;8.142;2023-05-31T14:27:40;2.35;;;1.75;;
18100;SDS011;9177;49.156;8.142;2023-05-31T14:30:09;3.28;;;2.00;;
18100;SDS011;9177;49.156;8.142;2023-05-31T14:32:36;2.90;;;2.20;;
18100;SDS011;9177;49.156;8.142;2023-05-31T14:35:06;5.43;;;2.10;;
18100;SDS011;9177;49.156;8.142;2023-05-31T14:37:35;3.30;;;2.08;;
18100;SDS011;9177;49.156;8.142;2023-05-31T14:40:02;6.40;;;2.20;;
18100;SDS011;9177;49.156;8.142;2023-05-31T14:42:30;5.75;;;2.15;;
18100;SDS011;9177;49.156;8.142;2023-05-31T14:44:56;4.68;;;2.00;;
18100;SDS011;9177;49.156;8.142;2023-05-31T14:47:28;3.42;;;2.08;;
18100;SDS011;9177;49.156;8.142;2023-05-31T14:49:55;6.38;;;2.83;;
18100;SDS011;9177;49.156;8.142;2023-05-31T14:52:24;4.72;;;2.40;;
18100;SDS011;9177;49.156;8.142;2023-05-31T14:54:51;6.38;;;2.47;;
18100;SDS011;9177;49.156;8.142;2023-05-31T14:57:18;6.30;;;2.30;;
18100;SDS011;9177;49.156;8.142;2023-05-31T14:59:45;6.32;;;2.60;;
18100;SDS011;9177;49.156;8.142;2023-05-31T15:02:12;6.05;;;2.50;;
18100;SDS011;9177;49.156;8.142;2023-05-31T15:04:39;6.43;;;2.30;;
18100;SDS011;9177;49.156;8.142;2023-05-31T15:07:07;3.20;;;2.05;;
18100;SDS011;9177;49.156;8.142;2023-05-31T15:09:41;6.20;;;2.33;;
18100;SDS011;9177;49.156;8.142;2023-05-31T15:12:08;4.13;;;2.35;;
18100;SDS011;9177;49.156;8.142;2023-05-31T15:14:36;3.30;;;2.05;;
18100;SDS011;9177;49.156;8.142;2023-05-31T15:17:03;5.88;;;2.20;;